createdAt,value
2018-08-03T00:02:26.138Z,11.00
2018-08-03T00:04:58.205Z,11.00
2018-08-03T00:07:30.285Z,10.97
2018-08-03T00:10:02.332Z,10.20
2018-08-03T00:12:34.448Z,11.73
2018-08-03T00:15:07.942Z,10.23
2018-08-03T00:17:40.163Z,11.70
2018-08-03T00:20:12.237Z,11.37
2018-08-03T00:22:44.297Z,13.03
2018-08-03T00:25:16.264Z,11.80
2018-08-03T00:27:48.190Z,11.70
2018-08-03T00:30:21.308Z,11.20
2018-08-03T00:32:53.426Z,11.63
2018-08-03T00:35:25.343Z,12.87
2018-08-03T00:37:57.322Z,13.77
2018-08-03T00:40:29.402Z,12.93
2018-08-03T00:43:01.379Z,10.53
2018-08-03T00:45:33.547Z,11.63
2018-08-03T00:48:05.200Z,11.67
2018-08-03T00:50:37.460Z,13.37
2018-08-03T00:53:09.677Z,12.60
2018-08-03T00:55:41.690Z,10.70
2018-08-03T00:58:13.864Z,9.60
2018-08-03T01:00:46.624Z,11.93
2018-08-03T01:03:18.685Z,11.77
2018-08-03T01:05:51.123Z,10.03
2018-08-03T01:08:23.227Z,11.03
2018-08-03T01:10:55.274Z,10.27
2018-08-03T01:13:27.473Z,11.00
2018-08-03T01:15:59.623Z,11.13
2018-08-03T01:18:31.947Z,10.30
2018-08-03T01:21:04.060Z,12.00
2018-08-03T01:23:36.209Z,13.07
2018-08-03T01:26:08.325Z,11.90
2018-08-03T01:28:40.511Z,10.97
2018-08-03T01:31:12.522Z,11.90
2018-08-03T01:33:44.780Z,14.20
2018-08-03T01:36:16.885Z,16.27
2018-08-03T01:38:49.025Z,13.63
2018-08-03T01:41:21.042Z,16.03
2018-08-03T01:43:53.128Z,16.93
2018-08-03T01:46:25.215Z,16.93
2018-08-03T01:48:57.326Z,18.70
2018-08-03T01:51:29.354Z,17.50
2018-08-03T01:54:01.605Z,16.20
2018-08-03T01:56:33.622Z,17.43
2018-08-03T01:59:05.719Z,15.33
2018-08-03T02:01:37.770Z,17.70
2018-08-03T02:04:09.858Z,16.80
2018-08-03T02:06:41.988Z,18.90
2018-08-03T02:09:14.231Z,19.37
2018-08-03T02:11:46.467Z,18.40
2018-08-03T02:14:18.578Z,15.60
2018-08-03T02:16:50.537Z,14.23
2018-08-03T02:19:22.657Z,14.83
2018-08-03T02:21:54.625Z,18.30
2018-08-03T02:24:26.722Z,18.37
2018-08-03T02:26:58.788Z,19.83
2018-08-03T02:29:30.938Z,20.10
2018-08-03T02:32:03.217Z,20.37
2018-08-03T02:34:35.346Z,19.57
2018-08-03T02:37:07.395Z,18.70
2018-08-03T02:39:39.447Z,17.83
2018-08-03T02:42:11.559Z,17.20
2018-08-03T02:44:43.906Z,22.13
2018-08-03T02:47:16.054Z,19.50
2018-08-03T02:49:48.134Z,18.87
2018-08-03T02:52:20.149Z,22.60
2018-08-03T02:54:52.228Z,22.67
2018-08-03T02:57:24.168Z,19.77
2018-08-03T02:59:56.802Z,20.07
2018-08-03T03:02:28.817Z,20.30
2018-08-03T03:05:00.895Z,22.37
2018-08-03T03:07:32.956Z,20.80
2018-08-03T03:10:08.089Z,20.47
2018-08-03T03:12:40.117Z,24.00
2018-08-03T03:15:12.504Z,21.77
2018-08-03T03:17:44.568Z,20.77
2018-08-03T03:20:16.602Z,17.57
2018-08-03T03:22:48.683Z,15.03
2018-08-03T03:25:21.361Z,20.27
2018-08-03T03:27:53.364Z,19.17
2018-08-03T03:30:24.902Z,18.00
2018-08-03T03:32:56.742Z,17.80
2018-08-03T03:35:28.808Z,17.63
2018-08-03T03:38:00.960Z,17.83
2018-08-03T03:40:33.372Z,15.67
2018-08-03T03:43:05.467Z,16.47
2018-08-03T03:45:37.758Z,17.13
2018-08-03T03:48:09.703Z,15.60
2018-08-03T03:50:41.683Z,17.87
2018-08-03T03:53:13.762Z,18.00
2018-08-03T03:55:45.868Z,17.67
2018-08-03T03:58:18.124Z,16.90
2018-08-03T04:00:50.145Z,17.77
2018-08-03T04:03:22.134Z,17.70
2018-08-03T04:05:54.897Z,15.40
2018-08-03T04:08:27.029Z,17.87
2018-08-03T04:10:59.214Z,15.90
2018-08-03T04:13:31.328Z,17.33
2018-08-03T04:16:02.821Z,15.30
2018-08-03T04:18:34.589Z,14.77
2018-08-03T04:21:06.642Z,16.33
2018-08-03T04:23:38.736Z,16.83
2018-08-03T04:26:10.858Z,18.57
2018-08-03T04:28:42.831Z,19.70
2018-08-03T04:31:14.909Z,17.60
2018-08-03T04:33:46.936Z,18.87
2018-08-03T04:36:19.258Z,19.03
2018-08-03T04:38:51.407Z,19.83
2018-08-03T04:41:23.539Z,20.33
2018-08-03T04:43:55.502Z,19.60
2018-08-03T04:46:27.505Z,18.67
2018-08-03T04:49:00.171Z,17.17
2018-08-03T04:51:32.200Z,18.10
2018-08-03T04:54:04.243Z,17.70
2018-08-03T04:56:36.378Z,15.57
2018-08-03T04:59:08.654Z,16.63
2018-08-03T05:01:40.697Z,16.20
2018-08-03T05:04:12.677Z,19.50
2018-08-03T05:06:44.649Z,18.93
2018-08-03T05:09:16.630Z,20.77
2018-08-03T05:11:48.624Z,19.83
2018-08-03T05:14:20.829Z,19.57
2018-08-03T05:16:53.141Z,21.03
2018-08-03T05:19:25.403Z,21.33
2018-08-03T05:21:57.781Z,21.20
2018-08-03T05:24:30.063Z,20.97
2018-08-03T05:27:02.261Z,19.33
2018-08-03T05:29:34.563Z,17.17
2018-08-03T05:32:07.111Z,20.47
2018-08-03T05:34:39.568Z,19.37
2018-08-03T05:37:11.825Z,20.03
2018-08-03T05:39:44.016Z,20.80
2018-08-03T05:42:16.676Z,22.17
2018-08-03T05:44:49.162Z,19.23
2018-08-03T05:47:21.876Z,19.53
2018-08-03T05:49:54.225Z,19.73
2018-08-03T05:52:26.746Z,18.70
2018-08-03T05:54:59.081Z,19.97
2018-08-03T05:57:31.623Z,19.53
2018-08-03T06:00:04.078Z,18.37
2018-08-03T06:02:36.452Z,18.43
2018-08-03T06:05:10.366Z,17.53
2018-08-03T06:07:42.870Z,18.17
2018-08-03T06:10:15.608Z,18.93
2018-08-03T06:12:48.012Z,18.57
2018-08-03T06:15:20.398Z,20.27
2018-08-03T06:17:52.758Z,20.50
2018-08-03T06:20:25.168Z,19.90
2018-08-03T06:22:57.568Z,19.13
2018-08-03T06:25:29.939Z,18.70
2018-08-03T06:28:02.158Z,20.40
2018-08-03T06:30:34.333Z,19.97
2018-08-03T06:33:06.686Z,19.90
2018-08-03T06:35:38.942Z,20.60
2018-08-03T06:38:11.398Z,20.00
2018-08-03T06:40:43.896Z,19.50
2018-08-03T06:43:16.255Z,19.10
2018-08-03T06:45:48.463Z,18.63
2018-08-03T06:48:20.796Z,18.40
2018-08-03T06:50:52.988Z,18.50
2018-08-03T06:53:28.536Z,18.10
2018-08-03T06:56:00.756Z,18.40
2018-08-03T06:58:33.222Z,18.83
2018-08-03T07:01:05.588Z,18.93
2018-08-03T07:03:37.899Z,20.27
2018-08-03T07:06:10.114Z,18.80
2018-08-03T07:08:42.349Z,17.40
2018-08-03T07:11:14.748Z,18.83
2018-08-03T07:13:46.944Z,19.87
2018-08-03T07:16:19.561Z,19.53
2018-08-03T07:18:51.878Z,18.73
2018-08-03T07:21:27.781Z,19.57
2018-08-03T07:24:00.502Z,18.83
2018-08-03T07:26:32.828Z,19.30
2018-08-03T07:29:05.329Z,20.07
2018-08-03T07:31:37.724Z,18.47
2018-08-03T07:34:10.103Z,19.83
2018-08-03T07:36:42.353Z,18.73
2018-08-03T07:39:14.786Z,17.73
2018-08-03T07:41:47.311Z,18.10
2018-08-03T07:44:19.615Z,16.63
2018-08-03T07:46:52.128Z,16.13
2018-08-03T07:49:24.664Z,15.23
2018-08-03T07:51:56.981Z,15.40
2018-08-03T07:54:29.036Z,16.47
2018-08-03T07:57:01.093Z,16.67
2018-08-03T07:59:33.274Z,15.80
2018-08-03T08:02:05.354Z,15.97
2018-08-03T08:04:37.444Z,16.67
2018-08-03T08:07:09.568Z,15.97
2018-08-03T08:09:41.687Z,15.23
2018-08-03T08:12:13.756Z,15.93
2018-08-03T08:14:45.977Z,14.73
2018-08-03T08:17:18.254Z,15.97
2018-08-03T08:19:50.434Z,15.00
2018-08-03T08:22:22.401Z,13.83
2018-08-03T08:24:54.585Z,15.00
2018-08-03T08:27:26.664Z,13.77
2018-08-03T08:29:58.852Z,13.33
2018-08-03T08:32:30.822Z,12.40
2018-08-03T08:35:03.011Z,14.00
2018-08-03T08:37:35.187Z,12.63
2018-08-03T08:40:07.616Z,12.20
2018-08-03T08:42:39.706Z,12.30
2018-08-03T08:45:11.825Z,11.60
2018-08-03T08:47:44.024Z,10.93
2018-08-03T08:50:16.143Z,10.97
2018-08-03T08:52:48.236Z,10.97
2018-08-03T08:55:20.358Z,10.10
2018-08-03T08:57:55.400Z,10.40
2018-08-03T09:00:27.648Z,9.43
2018-08-03T09:02:59.740Z,9.50
2018-08-03T09:05:31.898Z,9.37
2018-08-03T09:08:04.458Z,9.10
2018-08-03T09:10:36.717Z,9.17
2018-08-03T09:13:08.835Z,10.20
2018-08-03T09:15:40.986Z,9.63
2018-08-03T09:18:13.106Z,9.57
2018-08-03T09:20:45.230Z,9.10
2018-08-03T09:23:17.337Z,9.30
2018-08-03T09:25:49.998Z,9.20
2018-08-03T09:28:22.273Z,8.83
2018-08-03T09:30:54.438Z,8.97
2018-08-03T09:33:26.365Z,9.40
2018-08-03T09:35:58.443Z,10.20
2018-08-03T09:38:30.518Z,10.07
2018-08-03T09:41:02.744Z,9.90
2018-08-03T09:43:34.787Z,10.27
2018-08-03T09:46:07.307Z,10.77
2018-08-03T09:48:39.435Z,10.40
2018-08-03T09:51:11.773Z,9.67
2018-08-03T09:53:43.862Z,10.90
2018-08-03T09:56:16.071Z,11.77
2018-08-03T09:58:48.446Z,10.73
2018-08-03T10:01:20.623Z,10.70
2018-08-03T10:03:52.745Z,11.00
2018-08-03T10:06:24.944Z,11.23
2018-08-03T10:08:57.114Z,10.80
2018-08-03T10:11:29.365Z,11.03
2018-08-03T10:14:01.497Z,10.63
2018-08-03T10:16:34.116Z,10.07
2018-08-03T10:19:06.309Z,10.50
2018-08-03T10:21:38.861Z,10.43
2018-08-03T10:24:11.825Z,11.33
2018-08-03T10:26:44.046Z,10.67
2018-08-03T10:29:15.539Z,11.33
2018-08-03T10:31:47.556Z,12.30
2018-08-03T10:34:19.597Z,10.70
2018-08-03T10:36:52.202Z,10.83
2018-08-03T10:39:24.346Z,9.93
2018-08-03T10:41:56.425Z,11.30
2018-08-03T10:44:28.525Z,11.10
2018-08-03T10:47:00.717Z,10.27
2018-08-03T10:49:32.748Z,10.33
2018-08-03T10:52:05.006Z,9.83
2018-08-03T10:54:37.627Z,10.60
2018-08-03T10:57:09.731Z,10.90
2018-08-03T10:59:41.660Z,10.10
2018-08-03T11:02:13.571Z,8.87
2018-08-03T11:04:45.718Z,9.70
2018-08-03T11:07:18.575Z,9.70
2018-08-03T11:09:51.746Z,9.47
2018-08-03T11:12:23.808Z,9.87
2018-08-03T11:14:56.323Z,10.23
2018-08-03T11:17:28.727Z,8.70
2018-08-03T11:20:00.798Z,8.70
2018-08-03T11:22:32.989Z,8.37
2018-08-03T11:25:05.052Z,9.00
2018-08-03T11:27:37.732Z,8.30
2018-08-03T11:30:11.525Z,8.20
2018-08-03T11:32:44.009Z,8.30
2018-08-03T11:35:16.195Z,8.30
2018-08-03T11:37:48.306Z,7.33
2018-08-03T11:40:19.927Z,7.40
2018-08-03T11:42:51.875Z,8.10
2018-08-03T11:45:23.999Z,7.27
2018-08-03T11:47:56.197Z,7.33
2018-08-03T11:50:29.091Z,7.63
2018-08-03T11:53:03.271Z,7.13
2018-08-03T11:55:35.744Z,7.70
2018-08-03T11:58:08.201Z,7.57
2018-08-03T12:00:40.473Z,7.50
2018-08-03T12:03:12.868Z,6.73
2018-08-03T12:05:45.123Z,7.40
2018-08-03T12:08:17.185Z,7.33
2018-08-03T12:10:49.612Z,6.93
2018-08-03T12:13:22.002Z,7.07
2018-08-03T12:15:54.974Z,7.10
2018-08-03T12:18:27.226Z,7.30
2018-08-03T12:20:59.259Z,7.23
2018-08-03T12:23:31.626Z,6.83
2018-08-03T12:26:03.844Z,6.97
2018-08-03T12:28:36.029Z,7.03
2018-08-03T12:31:08.368Z,6.90
2018-08-03T12:33:40.821Z,6.53
2018-08-03T12:36:13.008Z,7.35
2018-08-03T12:38:45.095Z,6.78
2018-08-03T12:41:17.321Z,7.17
2018-08-03T12:43:49.518Z,5.95
2018-08-03T12:46:21.682Z,7.10
2018-08-03T12:48:53.858Z,7.37
2018-08-03T12:51:26.066Z,7.12
2018-08-03T12:53:58.180Z,7.37
2018-08-03T12:56:30.679Z,7.37
2018-08-03T12:59:03.126Z,7.40
2018-08-03T13:01:35.141Z,7.30
2018-08-03T13:04:06.851Z,7.30
2018-08-03T13:06:38.798Z,7.50
2018-08-03T13:09:10.999Z,7.15
2018-08-03T13:11:43.245Z,7.03
2018-08-03T13:14:16.905Z,7.15
2018-08-03T13:16:49.263Z,6.85
2018-08-03T13:19:21.350Z,7.30
2018-08-03T13:21:54.578Z,7.35
2018-08-03T13:24:26.754Z,6.62
2018-08-03T13:26:58.871Z,6.85
2018-08-03T13:29:31.336Z,6.90
2018-08-03T13:32:04.845Z,6.12
2018-08-03T13:34:38.128Z,6.83
2018-08-03T13:37:10.334Z,6.58
2018-08-03T13:39:42.620Z,6.40
2018-08-03T13:42:14.807Z,7.03
2018-08-03T13:44:47.086Z,6.78
2018-08-03T13:47:19.219Z,6.47
2018-08-03T13:49:51.325Z,6.42
2018-08-03T13:52:22.967Z,6.33
2018-08-03T13:54:54.357Z,6.72
2018-08-03T13:57:26.204Z,6.75
2018-08-03T13:59:59.025Z,6.42
2018-08-03T14:02:31.266Z,6.50
2018-08-03T14:05:03.370Z,6.53
2018-08-03T14:07:36.235Z,5.92
2018-08-03T14:10:10.294Z,5.75
2018-08-03T14:12:42.343Z,5.83
2018-08-03T14:15:14.958Z,5.65
2018-08-03T14:17:47.266Z,5.72
2018-08-03T14:20:19.635Z,5.90
2018-08-03T14:22:52.009Z,5.53
2018-08-03T14:25:24.151Z,6.12
2018-08-03T14:27:56.362Z,6.15
2018-08-03T14:30:28.341Z,5.65
2018-08-03T14:33:00.361Z,6.22
2018-08-03T14:35:32.636Z,6.20
2018-08-03T14:38:04.798Z,6.12
2018-08-03T14:40:37.061Z,6.60
2018-08-03T14:43:09.432Z,6.47
2018-08-03T14:45:41.686Z,5.92
2018-08-03T14:48:13.910Z,6.10
2018-08-03T14:50:45.966Z,6.10
2018-08-03T14:53:18.026Z,6.97
2018-08-03T14:55:50.544Z,6.10
2018-08-03T14:58:22.689Z,6.67
2018-08-03T15:00:54.722Z,6.47
2018-08-03T15:03:26.887Z,6.80
2018-08-03T15:05:58.963Z,6.65
2018-08-03T15:08:31.254Z,6.50
2018-08-03T15:11:03.405Z,6.85
2018-08-03T15:13:35.317Z,7.05
2018-08-03T15:16:08.446Z,7.05
2018-08-03T15:18:40.699Z,6.53
2018-08-03T15:21:12.742Z,7.17
2018-08-03T15:23:44.784Z,7.03
2018-08-03T15:26:16.770Z,6.60
2018-08-03T15:28:49.078Z,6.50
2018-08-03T15:31:21.770Z,7.30
2018-08-03T15:33:54.035Z,6.70
2018-08-03T15:36:26.010Z,7.15
2018-08-03T15:38:58.106Z,6.78
2018-08-03T15:41:29.914Z,6.85
2018-08-03T15:44:01.775Z,7.33
2018-08-03T15:46:34.078Z,6.87
2018-08-03T15:49:06.495Z,7.92
2018-08-03T15:51:38.462Z,7.60
2018-08-03T15:54:10.567Z,7.60
2018-08-03T15:56:42.215Z,7.90
2018-08-03T15:59:14.166Z,7.83
2018-08-03T16:01:46.244Z,8.40
2018-08-03T16:04:18.472Z,7.28
2018-08-03T16:06:50.651Z,8.13
2018-08-03T16:09:22.843Z,7.70
2018-08-03T16:11:54.893Z,8.18
2018-08-03T16:14:26.936Z,8.60
2018-08-03T16:16:59.052Z,8.20
2018-08-03T16:19:31.131Z,8.73
2018-08-03T16:22:03.713Z,8.60
2018-08-03T16:24:35.795Z,8.45
2018-08-03T16:27:07.912Z,8.68
2018-08-03T16:29:40.078Z,8.23
2018-08-03T16:32:12.143Z,8.78
2018-08-03T16:34:44.235Z,9.13
2018-08-03T16:37:16.406Z,8.80
2018-08-03T16:39:48.604Z,8.15
2018-08-03T16:42:20.587Z,8.33
2018-08-03T16:44:52.729Z,8.33
2018-08-03T16:47:24.704Z,9.10
2018-08-03T16:49:57.013Z,8.90
2018-08-03T16:52:29.052Z,9.37
2018-08-03T16:55:01.054Z,9.03
2018-08-03T16:57:32.989Z,9.07
2018-08-03T17:00:05.506Z,8.70
2018-08-03T17:02:38.015Z,8.90
2018-08-03T17:05:10.257Z,9.05
2018-08-03T17:07:42.236Z,8.55
2018-08-03T17:10:14.385Z,8.65
2018-08-03T17:12:46.429Z,8.45
2018-08-03T17:15:18.523Z,8.43
2018-08-03T17:17:50.409Z,8.10
2018-08-03T17:20:22.444Z,8.80
2018-08-03T17:22:54.614Z,9.05
2018-08-03T17:25:27.137Z,8.83
2018-08-03T17:28:02.455Z,8.75
2018-08-03T17:30:42.310Z,8.65
2018-08-03T17:33:14.634Z,8.78
2018-08-03T17:35:48.068Z,9.30
2018-08-03T17:38:20.493Z,8.60
2018-08-03T17:40:52.503Z,8.58
2018-08-03T17:43:24.708Z,9.83
2018-08-03T17:45:56.976Z,9.47
2018-08-03T17:48:29.026Z,9.43
2018-08-03T17:51:01.745Z,10.07
2018-08-03T17:53:33.631Z,9.77
2018-08-03T17:56:05.353Z,9.70
2018-08-03T17:58:37.368Z,9.90
2018-08-03T18:01:09.385Z,9.77
2018-08-03T18:03:41.399Z,10.13
2018-08-03T18:06:13.302Z,9.67
2018-08-03T18:08:45.305Z,9.97
2018-08-03T18:11:17.339Z,9.87
2018-08-03T18:13:49.529Z,9.73
2018-08-03T18:16:21.994Z,9.37
2018-08-03T18:18:54.585Z,10.00
2018-08-03T18:21:26.562Z,9.93
2018-08-03T18:23:58.485Z,10.37
2018-08-03T18:26:30.694Z,10.37
2018-08-03T18:29:03.014Z,10.07
2018-08-03T18:31:35.082Z,9.90
2018-08-03T18:34:07.261Z,10.23
2018-08-03T18:36:39.356Z,9.93
2018-08-03T18:39:13.372Z,9.90
2018-08-03T18:41:45.617Z,10.13
2018-08-03T18:44:19.042Z,10.03
2018-08-03T18:46:51.128Z,10.07
2018-08-03T18:49:23.212Z,9.40
2018-08-03T18:51:58.360Z,10.23
2018-08-03T18:54:30.729Z,9.83
2018-08-03T18:57:02.801Z,10.10
2018-08-03T18:59:35.915Z,10.40
2018-08-03T19:02:08.533Z,10.43
2018-08-03T19:04:40.761Z,10.80
2018-08-03T19:07:12.945Z,10.37
2018-08-03T19:09:46.851Z,10.30
2018-08-03T19:12:18.664Z,10.37
2018-08-03T19:14:51.541Z,9.83
2018-08-03T19:17:23.595Z,10.33
2018-08-03T19:19:55.655Z,10.50
2018-08-03T19:22:27.694Z,10.60
2018-08-03T19:25:00.142Z,10.37
2018-08-03T19:27:32.349Z,10.60
2018-08-03T19:30:05.711Z,10.00
2018-08-03T19:32:37.750Z,10.60
2018-08-03T19:35:09.998Z,10.20
2018-08-03T19:37:42.191Z,10.93
2018-08-03T19:40:14.708Z,10.50
2018-08-03T19:42:46.924Z,10.83
2018-08-03T19:45:19.755Z,10.37
2018-08-03T19:47:51.938Z,10.43
2018-08-03T19:50:23.958Z,9.90
2018-08-03T19:52:56.051Z,11.07
2018-08-03T19:55:28.159Z,11.13
2018-08-03T19:58:00.614Z,11.13
2018-08-03T20:00:32.973Z,11.70
2018-08-03T20:03:10.904Z,10.50
2018-08-03T20:05:48.693Z,10.23
2018-08-03T20:08:26.363Z,11.23
2018-08-03T20:11:03.763Z,10.27
2018-08-03T20:13:41.366Z,11.10
2018-08-03T20:16:19.002Z,10.53
2018-08-03T20:18:56.730Z,10.63
2018-08-03T20:21:34.172Z,11.07
2018-08-03T20:24:13.480Z,10.60
2018-08-03T20:26:47.407Z,10.60
2018-08-03T20:29:18.939Z,10.73
2018-08-03T20:31:50.402Z,11.03
2018-08-03T20:34:21.936Z,11.23
2018-08-03T20:36:53.547Z,10.80
2018-08-03T20:39:31.521Z,12.97
2018-08-03T20:42:04.022Z,11.20
2018-08-03T20:44:36.213Z,10.77
2018-08-03T20:47:08.412Z,11.20
2018-08-03T20:49:40.599Z,11.27
2018-08-03T20:52:12.717Z,11.17
2018-08-03T20:54:45.180Z,11.40
2018-08-03T20:57:17.401Z,11.20
2018-08-03T20:59:50.106Z,10.70
2018-08-03T21:02:22.438Z,11.13
2018-08-03T21:04:55.518Z,11.40
2018-08-03T21:07:27.745Z,11.40
2018-08-03T21:10:00.001Z,10.20
2018-08-03T21:12:32.063Z,11.53
2018-08-03T21:15:04.183Z,10.77
2018-08-03T21:17:37.170Z,12.13
2018-08-03T21:20:10.254Z,11.20
2018-08-03T21:22:42.321Z,11.20
2018-08-03T21:25:15.587Z,11.43
2018-08-03T21:27:47.610Z,11.03
2018-08-03T21:30:19.745Z,11.23
2018-08-03T21:32:51.701Z,10.93
2018-08-03T21:35:24.081Z,11.63
2018-08-03T21:37:56.330Z,11.93
2018-08-03T21:40:28.721Z,10.83
2018-08-03T21:43:01.368Z,11.43
2018-08-03T21:45:33.781Z,12.03
2018-08-03T21:48:06.233Z,11.53
2018-08-03T21:50:38.473Z,12.43
2018-08-03T21:53:10.785Z,12.47
2018-08-03T21:55:42.919Z,11.80
2018-08-03T21:58:14.621Z,12.00
2018-08-03T22:00:46.665Z,12.27
2018-08-03T22:03:18.853Z,12.40
2018-08-03T22:05:50.900Z,11.83
2018-08-03T22:08:22.450Z,12.47
2018-08-03T22:10:54.623Z,12.60
2018-08-03T22:13:26.756Z,12.13
2018-08-03T22:15:58.960Z,12.23
2018-08-03T22:18:31.421Z,11.83
2018-08-03T22:21:03.204Z,12.07
2018-08-03T22:23:35.262Z,12.00
2018-08-03T22:26:07.745Z,11.70
2018-08-03T22:28:40.140Z,11.40
2018-08-03T22:31:12.522Z,12.27
2018-08-03T22:33:44.710Z,12.47
2018-08-03T22:36:17.382Z,12.13
2018-08-03T22:38:49.716Z,12.30
2018-08-03T22:41:22.245Z,13.37
2018-08-03T22:43:53.982Z,12.50
2018-08-03T22:46:26.197Z,12.13
2018-08-03T22:48:58.705Z,12.87
2018-08-03T22:51:31.025Z,11.30
2018-08-03T22:54:03.795Z,12.60
2018-08-03T22:56:36.328Z,12.30
2018-08-03T22:59:08.126Z,12.70
2018-08-03T23:01:40.302Z,11.57
2018-08-03T23:04:19.352Z,11.37
2018-08-03T23:06:51.518Z,11.60
2018-08-03T23:09:23.822Z,12.20
2018-08-03T23:11:55.958Z,13.17
2018-08-03T23:14:28.034Z,13.07
2018-08-03T23:17:00.333Z,12.87
2018-08-03T23:19:32.460Z,12.60
2018-08-03T23:22:04.781Z,13.80
2018-08-03T23:24:37.512Z,13.43
2018-08-03T23:27:10.554Z,13.30
2018-08-03T23:29:42.767Z,13.37
2018-08-03T23:32:15.042Z,13.00
2018-08-03T23:34:47.103Z,12.27
2018-08-03T23:37:19.342Z,12.73
2018-08-03T23:39:51.693Z,12.53
2018-08-03T23:42:23.966Z,13.47
2018-08-03T23:44:56.177Z,13.50
2018-08-03T23:47:28.508Z,12.80
2018-08-03T23:50:00.654Z,13.07
2018-08-03T23:52:32.827Z,13.27
2018-08-03T23:55:05.186Z,13.30
2018-08-03T23:57:38.411Z,12.47
